Time;durP1;ratioP1;P1;durP2;ratioP2;P2;SDS_P1;SDS_P2;PMS_P1;PMS_P2;Temp;Humidity;BMP_temperature;BMP_pressure;BME280_temperature;BME280_humidity;BME280_pressure;Samples;Min_cycle;Max_cycle;Signal;HPM_P1;HPM_P2
2024/02/03 00:02:08;;;;;;;0.70;0.60;;;;;;;-145.69;43.56;52274.06;5137047;27;20288;-79
2024/02/03 00:04:36;;;;;;;0.73;0.60;;;;;;;-145.69;44.22;52258.22;5136891;27;20216;-79
2024/02/03 00:07:04;;;;;;;0.70;0.70;;;;;;;-145.69;43.31;52262.19;5136472;27;20715;-79
2024/02/03 00:09:30;;;;;;;0.50;0.50;;;;;;;-145.69;43.53;52252.28;5136925;27;20284;-80
2024/02/03 00:11:58;;;;;;;0.50;0.50;;;;;;;-145.69;43.10;52252.28;5136766;27;20566;-80
2024/02/03 00:14:25;;;;;;;0.50;0.50;;;;;;;-145.69;42.92;52278.03;5136821;27;20199;-78
2024/02/03 00:16:51;;;;;;;0.60;0.57;;;;;;;-145.69;43.35;52274.06;5137100;27;20212;-79
2024/02/03 00:19:23;;;;;;;0.60;0.60;;;;;;;-145.69;42.89;52250.31;5136637;27;20193;-78
2024/02/03 00:21:50;;;;;;;0.90;0.60;;;;;;;-145.69;44.10;52274.06;5136541;27;20211;-79
2024/02/03 00:24:16;;;;;;;0.60;0.60;;;;;;;-145.69;47.07;52272.09;5116751;27;20212;-79
2024/02/03 00:26:43;;;;;;;0.90;0.60;;;;;;;-145.69;46.21;52270.13;5115869;28;20209;-79
2024/02/03 00:29:14;;;;;;;0.60;0.60;;;;;;;-145.69;46.79;52262.19;5115981;28;20204;-79
2024/02/03 00:31:42;;;;;;;1.97;0.70;;;;;;;-145.69;46.98;52270.13;5126394;27;20218;-79
2024/02/03 00:34:09;;;;;;;0.60;0.60;;;;;;;-145.69;47.15;52280.00;5135619;27;20197;-79
2024/02/03 00:36:35;;;;;;;0.57;0.57;;;;;;;-145.69;47.22;52254.28;5135422;27;20200;-80
2024/02/03 00:39:02;;;;;;;0.60;0.60;;;;;;;-145.69;46.03;52270.13;5134767;27;20623;-79
2024/02/03 00:41:29;;;;;;;0.60;0.60;;;;;;;-145.69;46.26;52323.59;5136308;27;20520;-78
2024/02/03 00:43:58;;;;;;;0.60;0.60;;;;;;;-145.69;46.80;52280.00;5136148;27;20197;-78
2024/02/03 00:46:26;;;;;;;0.63;0.57;;;;;;;-145.69;46.48;52282.00;5135860;27;20216;-79
2024/02/03 00:48:52;;;;;;;0.70;0.70;;;;;;;-145.69;46.08;52287.94;5136002;27;20204;-79
2024/02/03 00:51:19;;;;;;;0.50;0.50;;;;;;;-145.69;44.46;52268.13;5135934;27;20631;-78
2024/02/03 00:53:45;;;;;;;0.70;0.70;;;;;;;-145.69;44.16;52266.16;5136308;27;20205;-78
2024/02/03 00:56:12;;;;;;;0.50;0.50;;;;;;;-145.69;44.48;52270.13;5135570;27;20212;-78
2024/02/03 00:58:39;;;;;;;0.43;0.43;;;;;;;-145.69;44.72;52285.97;5135979;27;20216;-79
2024/02/03 01:01:05;;;;;;;0.40;0.40;;;;;;;-145.69;44.36;52274.06;5135793;27;20663;-79
2024/02/03 01:03:33;;;;;;;0.50;0.50;;;;;;;-145.69;44.20;52254.28;5135733;27;20227;-79
2024/02/03 01:06:00;;;;;;;0.50;0.50;;;;;;;-145.69;44.54;52250.31;5135418;27;20239;-80
2024/02/03 01:08:26;;;;;;;0.60;0.60;;;;;;;-145.69;44.44;52252.28;5135783;27;20674;-79
2024/02/03 01:10:53;;;;;;;0.50;0.50;;;;;;;-145.69;43.81;52270.13;5135504;27;20207;-79
2024/02/03 01:13:19;;;;;;;0.60;0.60;;;;;;;-145.69;44.03;52293.88;5135560;27;20253;-80
2024/02/03 01:15:46;;;;;;;2.10;0.80;;;;;;;-145.69;46.30;52262.19;5135200;27;20216;-80
2024/02/03 01:18:13;;;;;;;0.87;0.50;;;;;;;-145.69;44.80;52289.91;5135259;27;20200;-79
2024/02/03 01:20:41;;;;;;;1.43;0.60;;;;;;;-145.69;44.42;52321.59;5135341;27;20544;-79
2024/02/03 01:23:08;;;;;;;0.60;0.60;;;;;;;-145.69;46.14;52297.84;5135375;27;20209;-79
2024/02/03 01:25:34;;;;;;;0.87;0.63;;;;;;;-145.69;45.24;52258.22;5134908;27;20216;-79
2024/02/03 01:28:01;;;;;;;0.53;0.53;;;;;;;-145.69;43.94;52274.06;5133812;27;20647;-79
2024/02/03 01:30:27;;;;;;;0.73;0.50;;;;;;;-145.69;43.13;52283.97;5135564;27;20236;-79
2024/02/03 01:32:55;;;;;;;0.60;0.60;;;;;;;-145.69;42.59;52287.94;5135310;27;20201;-78
2024/02/03 01:35:21;;;;;;;0.47;0.47;;;;;;;-145.69;42.93;52276.06;5135134;27;20204;-79
2024/02/03 01:37:49;;;;;;;0.50;0.50;;;;;;;-145.69;43.15;52276.06;5135534;27;20536;-79
2024/02/03 01:40:15;;;;;;;0.87;0.80;;;;;;;-145.69;42.78;52274.06;5135060;27;20189;-78
2024/02/03 01:42:42;;;;;;;3.47;0.60;;;;;;;-145.69;43.34;52262.19;5135486;27;20226;-79
2024/02/03 01:45:09;;;;;;;3.43;0.80;;;;;;;-145.69;44.60;52274.06;5134745;27;20216;-78
2024/02/03 01:47:36;;;;;;;0.60;0.60;;;;;;;-145.69;45.21;52301.81;5134965;27;20245;-79
2024/02/03 01:50:05;;;;;;;0.60;0.60;;;;;;;-145.69;44.75;52274.06;5133883;27;20224;-78
2024/02/03 01:52:33;;;;;;;0.53;0.53;;;;;;;-145.69;45.16;52252.28;5135244;27;20193;-78
2024/02/03 01:55:01;;;;;;;1.80;0.50;;;;;;;-145.69;45.01;52266.16;5134273;27;20201;-78
2024/02/03 01:57:30;;;;;;;0.53;0.53;;;;;;;-145.69;45.22;52278.03;5134703;27;20254;-78
2024/02/03 01:59:57;;;;;;;0.60;0.60;;;;;;;-145.69;45.04;52278.03;5134733;27;20203;-78
2024/02/03 02:02:24;;;;;;;0.60;0.60;;;;;;;-145.69;44.69;52234.47;5134284;27;20203;-78
2024/02/03 02:04:50;;;;;;;0.43;0.43;;;;;;;-145.69;45.06;52268.13;5134466;27;20249;-78
2024/02/03 02:07:17;;;;;;;0.53;0.53;;;;;;;-145.69;44.93;52287.94;5134421;27;20543;-78
2024/02/03 02:09:44;;;;;;;0.47;0.47;;;;;;;-145.69;44.20;52282.00;5114001;28;20626;-78
2024/02/03 02:12:12;;;;;;;0.70;0.60;;;;;;;-145.69;44.17;52266.16;5114005;28;20208;-79
2024/02/03 02:14:38;;;;;;;0.60;0.60;;;;;;;-145.69;44.53;52282.00;5120029;27;20208;-78
2024/02/03 02:17:05;;;;;;;0.63;0.60;;;;;;;-145.69;44.46;52280.00;5134223;27;20228;-78
2024/02/03 02:19:31;;;;;;;0.63;0.60;;;;;;;-145.69;45.18;52260.22;5134140;27;20204;-79
2024/02/03 02:21:59;;;;;;;0.63;0.50;;;;;;;-145.69;45.57;52283.97;5134243;27;20204;-79
2024/02/03 02:24:26;;;;;;;0.50;0.50;;;;;;;-145.69;45.48;52266.16;5133847;27;20192;-79
2024/02/03 02:26:52;;;;;;;0.43;0.43;;;;;;;-145.69;45.50;52289.91;5134187;27;20224;-79
2024/02/03 02:29:18;;;;;;;0.50;0.50;;;;;;;-145.69;45.03;52331.50;5134132;27;20197;-78
2024/02/03 02:31:45;;;;;;;0.67;0.43;;;;;;;-145.69;44.77;52301.81;5119923;27;20204;-80
2024/02/03 02:34:12;;;;;;;0.73;0.73;;;;;;;-145.69;45.35;52278.03;5113289;28;20208;-78
2024/02/03 02:36:39;;;;;;;0.70;0.70;;;;;;;-145.69;47.10;52287.94;5113518;28;20204;-78
2024/02/03 02:39:09;;;;;;;0.60;0.60;;;;;;;-145.69;47.14;52278.03;5113573;28;20556;-80
2024/02/03 02:41:36;;;;;;;0.40;0.40;;;;;;;-145.69;47.22;52254.28;5113524;28;20250;-78
2024/02/03 02:44:02;;;;;;;0.60;0.60;;;;;;;-145.69;47.36;52307.75;5121551;27;20279;-78
2024/02/03 02:46:29;;;;;;;0.53;0.53;;;;;;;-145.69;47.10;52303.78;5133750;27;20293;-80
2024/02/03 02:48:55;;;;;;;0.50;0.50;;;;;;;-145.69;48.09;52303.78;5133501;27;20651;-79
2024/02/03 02:51:22;;;;;;;0.50;0.50;;;;;;;-145.69;48.24;52301.81;5133140;27;20229;-79
2024/02/03 02:53:48;;;;;;;2.57;0.50;;;;;;;-145.69;47.65;52287.94;5133789;27;20223;-80
2024/02/03 02:56:16;;;;;;;0.60;0.60;;;;;;;-145.69;46.89;52264.16;5133584;27;20249;-79
2024/02/03 02:58:43;;;;;;;0.70;0.70;;;;;;;-145.69;46.26;52266.16;5133625;27;20205;-80
2024/02/03 03:01:09;;;;;;;0.67;0.60;;;;;;;-145.69;46.49;52293.88;5133757;27;20199;-81
2024/02/03 03:03:36;;;;;;;5.83;0.60;;;;;;;-145.69;46.18;52289.91;5133316;27;20193;-80
2024/02/03 03:06:02;;;;;;;0.50;0.50;;;;;;;-145.69;45.37;52285.97;5133679;27;20228;-80
2024/02/03 03:08:28;;;;;;;5.20;0.60;;;;;;;-145.69;46.45;52270.13;5133180;27;20678;-79
2024/02/03 03:10:55;;;;;;;0.50;0.50;;;;;;;-145.69;47.26;52283.97;5133462;27;20196;-79
2024/02/03 03:13:23;;;;;;;0.50;0.50;;;;;;;-145.69;48.64;52274.06;5133432;27;20543;-79
2024/02/03 03:15:49;;;;;;;0.43;0.43;;;;;;;-145.69;48.82;52266.16;5133545;27;20287;-79
2024/02/03 03:18:16;;;;;;;0.53;0.53;;;;;;;-145.69;48.25;52278.03;5133313;27;20216;-80
2024/02/03 03:20:43;;;;;;;0.50;0.50;;;;;;;-145.69;47.18;52287.94;5133667;27;20200;-80
2024/02/03 03:23:09;;;;;;;0.70;0.50;;;;;;;-145.69;46.37;52266.16;5133417;27;20231;-80
2024/02/03 03:25:37;;;;;;;2.27;0.70;;;;;;;-145.69;45.96;52295.84;5133239;27;20224;-80
2024/02/03 03:28:04;;;;;;;0.93;0.60;;;;;;;-145.69;46.24;52276.06;5132944;27;20196;-79
2024/02/03 03:30:32;;;;;;;0.60;0.60;;;;;;;-145.69;45.53;52276.06;5133690;27;20211;-80
2024/02/03 03:32:58;;;;;;;0.67;0.50;;;;;;;-145.69;45.67;52301.81;5133569;28;20207;-79
2024/02/03 03:35:29;;;;;;;1.80;0.60;;;;;;;-145.69;46.56;52289.91;5133463;27;20197;-79
2024/02/03 03:38:02;;;;;;;2.50;0.53;;;;;;;-145.69;48.12;52297.84;5133151;27;20764;-78
2024/02/03 03:40:31;;;;;;;0.70;0.70;;;;;;;-145.69;48.75;52278.03;5133368;27;20657;-78
2024/02/03 03:43:00;;;;;;;0.60;0.60;;;;;;;-145.69;47.84;52283.97;5133230;27;20204;-78
2024/02/03 03:45:30;;;;;;;0.63;0.63;;;;;;;-145.69;48.42;52317.66;5133069;27;20236;-79
2024/02/03 03:47:59;;;;;;;0.40;0.40;;;;;;;-145.69;49.17;52305.75;5132751;28;20193;-79
2024/02/03 03:50:27;;;;;;;0.60;0.60;;;;;;;-145.69;49.35;52278.03;5133119;27;20268;-79
2024/02/03 03:52:59;;;;;;;0.50;0.50;;;;;;;-145.69;47.53;52276.06;5132862;27;20220;-79
2024/02/03 03:55:27;;;;;;;0.77;0.60;;;;;;;-145.69;48.72;52276.06;5133294;28;20201;-79
2024/02/03 03:57:57;;;;;;;0.50;0.50;;;;;;;-145.69;48.38;52270.13;5132662;28;20691;-79
2024/02/03 04:00:27;;;;;;;0.53;0.53;;;;;;;-145.69;48.30;52266.16;5112743;28;20682;-80
2024/02/03 04:02:55;;;;;;;2.43;0.50;;;;;;;-145.69;50.19;52274.06;5118057;28;20201;-79
2024/02/03 04:05:36;;;;;;;0.93;0.60;;;;;;;-145.69;49.08;52291.91;5132410;27;20291;-79
2024/02/03 04:08:15;;;;;;;2.13;0.60;;;;;;;-145.69;48.40;52287.94;5132107;28;20289;-79
2024/02/03 04:10:41;;;;;;;0.67;0.67;;;;;;;-145.69;49.75;52299.81;5133089;27;20201;-80
2024/02/03 04:13:10;;;;;;;0.60;0.60;;;;;;;-145.69;47.68;52266.16;5133912;27;20277;-79
2024/02/03 04:15:36;;;;;;;0.50;0.50;;;;;;;-145.69;50.26;52270.13;5136731;27;20635;-79
2024/02/03 04:18:03;;;;;;;0.50;0.50;;;;;;;-145.69;49.99;52260.22;5136432;27;20193;-79
2024/02/03 04:20:31;;;;;;;1.23;0.60;;;;;;;-145.69;48.42;52299.81;5136717;27;20204;-80
2024/02/03 04:23:02;;;;;;;0.53;0.53;;;;;;;-145.69;48.31;52276.06;5136885;27;20197;-79
2024/02/03 04:25:30;;;;;;;0.40;0.40;;;;;;;-145.69;50.06;52285.97;5118898;27;20202;-79
2024/02/03 04:28:03;;;;;;;0.70;0.70;;;;;;;-145.69;50.41;52260.22;5116104;28;20564;-79
2024/02/03 04:30:30;;;;;;;1.47;0.60;;;;;;;-145.69;49.94;52297.84;5115968;28;20580;-79
2024/02/03 04:32:56;;;;;;;0.50;0.50;;;;;;;-145.69;49.52;52291.91;5116120;28;20209;-78
2024/02/03 04:35:24;;;;;;;0.60;0.60;;;;;;;-145.69;49.34;52285.97;5115958;28;20675;-79
2024/02/03 04:37:52;;;;;;;0.50;0.50;;;;;;;-145.69;50.90;52285.97;5116037;28;20292;-78
2024/02/03 04:40:18;;;;;;;0.60;0.60;;;;;;;-145.69;50.56;52291.91;5135624;27;20200;-79
2024/02/03 04:42:47;;;;;;;0.67;0.67;;;;;;;-145.69;50.31;52321.59;5136252;27;20192;-78
2024/02/03 04:45:14;;;;;;;0.60;0.60;;;;;;;-145.69;50.45;52313.69;5136086;27;20201;-78
2024/02/03 04:47:40;;;;;;;0.60;0.60;;;;;;;-145.69;49.48;52325.56;5136003;27;20223;-78
2024/02/03 04:50:10;;;;;;;1.47;0.67;;;;;;;-145.69;51.02;52293.88;5135625;27;20646;-78
2024/02/03 04:52:39;;;;;;;0.60;0.60;;;;;;;-145.69;51.38;52309.72;5136361;27;20643;-78
2024/02/03 04:55:07;;;;;;;0.80;0.80;;;;;;;-145.69;51.09;52305.75;5136111;27;20266;-79
2024/02/03 04:57:36;;;;;;;1.47;0.63;;;;;;;-145.69;50.61;52282.00;5135581;27;20211;-79
2024/02/03 05:00:04;;;;;;;1.13;0.60;;;;;;;-145.69;50.70;52291.91;5135626;27;20200;-79
2024/02/03 05:02:31;;;;;;;0.67;0.67;;;;;;;-145.69;52.19;52305.75;5135659;27;20196;-78
2024/02/03 05:05:00;;;;;;;3.57;0.60;;;;;;;-145.69;52.47;52327.53;5136051;27;20658;-78
2024/02/03 05:07:27;;;;;;;1.03;0.60;;;;;;;-145.69;52.34;52282.00;5135618;27;20235;-79
2024/02/03 05:09:53;;;;;;;2.77;0.50;;;;;;;-145.69;50.97;52315.66;5134866;27;20280;-78
2024/02/03 05:12:21;;;;;;;0.60;0.60;;;;;;;-145.69;50.82;52305.75;5134613;27;20200;-78
2024/02/03 05:14:48;;;;;;;0.60;0.60;;;;;;;-145.69;50.69;52282.00;5135674;27;20199;-79
2024/02/03 05:17:14;;;;;;;2.57;0.50;;;;;;;-145.69;50.32;52287.94;5135388;27;20197;-79
2024/02/03 05:19:41;;;;;;;1.17;0.73;;;;;;;-145.69;51.52;52274.06;5135338;27;20197;-78
2024/02/03 05:22:07;;;;;;;0.70;0.60;;;;;;;-145.69;51.58;52293.88;5135546;27;20296;-78
2024/02/03 05:24:34;;;;;;;0.50;0.50;;;;;;;-145.69;51.93;52293.88;5134707;27;20201;-78
2024/02/03 05:27:01;;;;;;;0.67;0.60;;;;;;;-145.69;52.77;52301.81;5135424;27;20235;-78
2024/02/03 05:29:32;;;;;;;1.77;0.70;;;;;;;-145.69;52.63;52299.81;5135257;27;20196;-79
2024/02/03 05:32:00;;;;;;;0.60;0.60;;;;;;;-145.69;52.74;52264.16;5135224;27;20197;-77
2024/02/03 05:34:26;;;;;;;0.63;0.63;;;;;;;-145.69;52.85;52295.84;5135120;27;20224;-78
2024/02/03 05:36:54;;;;;;;1.17;0.60;;;;;;;-145.69;52.99;52285.97;5135136;27;20196;-77
2024/02/03 05:39:21;;;;;;;0.40;0.40;;;;;;;-145.69;52.74;52274.06;5134598;27;20665;-77
2024/02/03 05:41:47;;;;;;;0.60;0.60;;;;;;;-145.69;52.48;52301.81;5135409;27;20226;-78
2024/02/03 05:44:14;;;;;;;1.00;0.70;;;;;;;-145.69;53.30;52301.81;5134704;27;20436;-78
2024/02/03 05:46:43;;;;;;;0.70;0.70;;;;;;;-145.69;53.03;52299.81;5134625;27;20225;-78
2024/02/03 05:49:10;;;;;;;0.60;0.60;;;;;;;-145.69;52.85;52234.47;5135152;27;20227;-79
2024/02/03 05:51:36;;;;;;;0.70;0.70;;;;;;;-145.69;53.94;52282.00;5134548;27;20228;-78
2024/02/03 05:54:03;;;;;;;0.93;0.60;;;;;;;-145.69;53.99;52317.66;5134304;27;20258;-78
2024/02/03 05:56:32;;;;;;;0.60;0.60;;;;;;;-145.69;54.51;52289.91;5134027;27;20203;-79
2024/02/03 05:59:00;;;;;;;0.60;0.60;;;;;;;-145.69;54.59;52289.91;5135139;27;20197;-79
2024/02/03 06:01:30;;;;;;;0.50;0.50;;;;;;;-145.69;54.60;52305.75;5134175;27;20672;-78
2024/02/03 06:04:04;;;;;;;0.70;0.70;;;;;;;-145.69;54.84;52299.81;5133948;27;20193;-78
2024/02/03 06:06:33;;;;;;;2.40;0.60;;;;;;;-145.69;54.77;52287.94;5134924;27;20224;-78
2024/02/03 06:08:59;;;;;;;0.50;0.50;;;;;;;-145.69;55.09;52270.13;5134103;27;20200;-79
2024/02/03 06:11:26;;;;;;;0.60;0.60;;;;;;;-145.69;55.74;52301.81;5134331;27;20285;-78
2024/02/03 06:13:52;;;;;;;0.47;0.47;;;;;;;-145.69;54.84;52303.78;5134900;27;20200;-78
2024/02/03 06:16:19;;;;;;;0.60;0.60;;;;;;;-145.69;54.58;52280.00;5134451;27;20200;-78
2024/02/03 06:18:45;;;;;;;0.60;0.60;;;;;;;-145.69;54.97;52285.97;5133624;27;20204;-79
2024/02/03 06:21:13;;;;;;;0.77;0.77;;;;;;;-145.69;54.65;52289.91;5117914;27;20197;-78
2024/02/03 06:23:40;;;;;;;0.70;0.70;;;;;;;-145.69;54.91;52274.06;5114046;28;20216;-78
2024/02/03 06:26:06;;;;;;;0.50;0.50;;;;;;;-145.69;54.65;52297.84;5113484;28;20201;-78
2024/02/03 06:28:33;;;;;;;1.07;0.63;;;;;;;-145.69;54.97;52325.56;5113641;28;20202;-78
2024/02/03 06:30:59;;;;;;;0.60;0.60;;;;;;;-145.69;55.00;52295.84;5113804;28;20205;-78
2024/02/03 06:33:27;;;;;;;0.60;0.60;;;;;;;-145.69;55.72;52301.81;5114087;28;20213;-80
2024/02/03 06:35:54;;;;;;;0.60;0.53;;;;;;;-145.69;55.79;52321.59;5123253;27;20189;-79
2024/02/03 06:38:22;;;;;;;0.60;0.60;;;;;;;-145.69;55.21;52285.97;5133455;27;20662;-78
2024/02/03 06:40:49;;;;;;;0.80;0.80;;;;;;;-145.69;55.25;52315.66;5133798;27;20192;-78
2024/02/03 06:43:15;;;;;;;0.80;0.73;;;;;;;-145.69;55.89;52293.88;5134063;27;20559;-78
2024/02/03 06:45:44;;;;;;;0.80;0.80;;;;;;;-145.69;55.41;52305.75;5133940;27;20197;-78
2024/02/03 06:48:11;;;;;;;0.70;0.70;;;;;;;-145.69;55.97;52315.66;5133901;27;20228;-78
2024/02/03 06:50:38;;;;;;;1.67;1.20;;;;;;;-145.69;56.30;52274.06;5133722;27;20713;-77
2024/02/03 06:53:05;;;;;;;0.93;0.83;;;;;;;-145.69;55.66;52317.66;5134136;27;20732;-81
2024/02/03 06:55:33;;;;;;;1.30;0.90;;;;;;;-145.69;56.07;52309.72;5133486;27;20196;-79
2024/02/03 06:58:00;;;;;;;0.80;0.80;;;;;;;-145.69;55.69;52266.16;5133920;27;20250;-79
2024/02/03 07:00:26;;;;;;;0.77;0.70;;;;;;;-145.69;55.97;52301.81;5133591;27;20205;-78
2024/02/03 07:02:53;;;;;;;0.90;0.90;;;;;;;-145.69;55.58;52303.78;5133310;27;20228;-78
2024/02/03 07:05:19;;;;;;;1.00;0.90;;;;;;;-145.69;55.55;52309.72;5133485;27;20193;-78
2024/02/03 07:07:48;;;;;;;0.67;0.67;;;;;;;-145.69;55.10;52327.53;5133797;27;20228;-79
2024/02/03 07:10:15;;;;;;;1.07;0.70;;;;;;;-145.69;55.04;52291.91;5131264;27;20195;-77
2024/02/03 07:12:42;;;;;;;1.67;1.10;;;;;;;-145.69;54.51;52283.97;5127576;27;20211;-77
2024/02/03 07:15:09;;;;;;;2.00;1.07;;;;;;;-145.69;54.79;52278.03;5133474;27;20193;-77
2024/02/03 07:17:36;;;;;;;0.87;0.70;;;;;;;-145.69;54.72;52283.97;5133565;27;20212;-79
2024/02/03 07:20:03;;;;;;;2.77;0.90;;;;;;;-145.69;54.25;52337.44;5133242;27;20197;-78
2024/02/03 07:22:30;;;;;;;1.17;0.80;;;;;;;-145.69;54.81;52293.88;5133198;27;20295;-79
2024/02/03 07:24:57;;;;;;;0.80;0.80;;;;;;;-145.69;54.70;52268.13;5133253;28;20197;-77
2024/02/03 07:27:23;;;;;;;0.70;0.70;;;;;;;-145.69;54.83;52283.97;5132702;28;20224;-78
2024/02/03 07:29:51;;;;;;;0.80;0.80;;;;;;;-145.69;54.37;52274.06;5120197;27;20666;-78
2024/02/03 07:32:17;;;;;;;1.47;0.90;;;;;;;-145.69;53.45;52289.91;5133581;27;20204;-77
2024/02/03 07:34:44;;;;;;;4.07;0.93;;;;;;;-145.69;53.12;52305.75;5133288;28;20765;-77
2024/02/03 07:37:10;;;;;;;1.00;0.90;;;;;;;-145.69;52.67;52291.91;5133065;27;20232;-78
2024/02/03 07:39:37;;;;;;;1.77;1.23;;;;;;;-145.69;52.57;52313.69;5132909;27;20218;-77
2024/02/03 07:42:05;;;;;;;1.00;1.00;;;;;;;-145.69;52.57;52313.69;5133003;27;20246;-78
2024/02/03 07:44:32;;;;;;;2.10;1.20;;;;;;;-145.69;52.38;52307.75;5132406;27;20203;-79
2024/02/03 07:47:02;;;;;;;1.57;1.00;;;;;;;-145.69;52.87;52289.91;5112394;28;20220;-78
2024/02/03 07:49:29;;;;;;;1.00;0.80;;;;;;;-145.69;52.95;52327.53;5115710;28;20628;-78
2024/02/03 07:51:55;;;;;;;2.73;1.80;;;;;;;-145.69;53.12;52282.00;5116664;28;20233;-77
2024/02/03 07:54:22;;;;;;;2.33;1.50;;;;;;;-145.69;53.01;52337.44;5127993;27;20198;-80
2024/02/03 07:56:48;;;;;;;8.00;3.00;;;;;;;-145.69;53.34;52297.84;5136857;27;20204;-79
2024/02/03 07:59:16;;;;;;;4.27;2.30;;;;;;;-145.69;53.22;52293.88;5136764;27;20197;-79
2024/02/03 08:01:43;;;;;;;2.50;1.50;;;;;;;-145.69;52.97;52305.75;5134612;27;20204;-79
2024/02/03 08:04:11;;;;;;;1.80;1.40;;;;;;;-145.69;52.97;52299.81;5116249;28;20194;-79
2024/02/03 08:06:40;;;;;;;2.73;1.07;;;;;;;-145.69;52.75;52297.84;5116456;28;20194;-79
2024/02/03 08:09:07;;;;;;;1.30;1.20;;;;;;;-145.69;52.30;52303.78;5131988;27;20196;-78
2024/02/03 08:11:34;;;;;;;1.50;1.30;;;;;;;-145.69;52.01;52274.06;5157854;27;20196;-78
2024/02/03 08:14:00;;;;;;;2.90;1.30;;;;;;;-145.69;51.91;52289.91;5157422;27;20589;-77
2024/02/03 08:16:26;;;;;;;1.90;1.30;;;;;;;-145.69;51.75;52276.06;5156986;27;20206;-78
2024/02/03 08:18:53;;;;;;;2.30;1.37;;;;;;;-145.69;51.30;52289.91;5144963;27;20224;-77
2024/02/03 08:21:21;;;;;;;1.40;1.20;;;;;;;-145.69;51.31;52333.47;5136432;27;20201;-77
2024/02/03 08:23:47;;;;;;;1.63;1.10;;;;;;;-145.69;51.08;52311.69;5136537;27;20201;-79
2024/02/03 08:26:14;;;;;;;1.20;1.10;;;;;;;-145.69;51.31;52309.72;5136776;27;20201;-80
2024/02/03 08:28:40;;;;;;;2.50;1.20;;;;;;;-145.69;51.12;52295.84;5136559;27;20229;-79
2024/02/03 08:31:07;;;;;;;1.43;1.00;;;;;;;-145.69;51.15;52297.84;5136775;27;20201;-79
2024/02/03 08:33:35;;;;;;;1.00;0.90;;;;;;;-145.69;51.17;52305.75;5136470;27;20647;-79
2024/02/03 08:36:01;;;;;;;0.70;0.70;;;;;;;-145.69;50.82;52285.97;5136108;27;20204;-78
2024/02/03 08:38:29;;;;;;;1.03;0.90;;;;;;;-145.69;50.79;52282.00;5136534;27;20197;-78
2024/02/03 08:40:56;;;;;;;1.53;1.23;;;;;;;-145.69;50.14;52287.94;5136611;27;20193;-79
2024/02/03 08:43:22;;;;;;;1.33;1.00;;;;;;;-145.69;49.76;52297.84;5136483;27;20205;-79
2024/02/03 08:45:49;;;;;;;1.53;1.10;;;;;;;-145.69;49.53;52289.91;5136323;27;20207;-79
2024/02/03 08:48:15;;;;;;;0.90;0.90;;;;;;;-145.69;48.87;52274.06;5136209;27;20229;-79
2024/02/03 08:50:42;;;;;;;11.70;6.07;;;;;;;-145.69;48.11;52289.91;5135635;27;20220;-80
2024/02/03 08:53:08;;;;;;;13.30;5.50;;;;;;;-145.69;47.80;52293.88;5135877;27;20208;-79
2024/02/03 08:55:36;;;;;;;5.97;2.83;;;;;;;-145.69;47.98;52305.75;5135841;27;20559;-78
2024/02/03 08:58:03;;;;;;;2.60;1.10;;;;;;;-145.69;47.54;52285.97;5136240;27;20201;-79
2024/02/03 09:00:29;;;;;;;1.90;1.20;;;;;;;-145.69;47.27;52266.16;5134806;27;20647;-78
2024/02/03 09:02:56;;;;;;;1.67;1.10;;;;;;;-145.69;46.41;52250.31;5135885;27;20201;-78
2024/02/03 09:05:22;;;;;;;2.97;1.40;;;;;;;-145.69;46.38;52287.94;5135189;27;20212;-79
2024/02/03 09:07:49;;;;;;;2.10;1.63;;;;;;;-145.69;45.29;52254.28;5135852;27;20221;-77
2024/02/03 09:10:16;;;;;;;5.07;1.50;;;;;;;-145.69;45.09;52268.13;5135737;27;20283;-77
2024/02/03 09:12:43;;;;;;;1.40;1.30;;;;;;;-145.69;45.11;52256.25;5135845;27;20197;-78
2024/02/03 09:15:11;;;;;;;2.00;1.30;;;;;;;-145.69;44.55;52254.28;5135615;27;20189;-77
2024/02/03 09:17:37;;;;;;;4.10;1.70;;;;;;;-145.69;44.17;52234.47;5128015;27;20200;-79
2024/02/03 09:20:05;;;;;;;2.57;1.27;;;;;;;-145.69;44.07;52246.34;5135270;27;20677;-79
2024/02/03 09:22:32;;;;;;;2.67;1.60;;;;;;;-145.69;43.47;52254.28;5135907;27;20242;-80
2024/02/03 09:24:58;;;;;;;2.00;1.47;;;;;;;-145.69;44.33;52272.09;5135659;27;20222;-79
2024/02/03 09:27:24;;;;;;;3.20;1.60;;;;;;;-145.69;44.32;52254.28;5135055;27;20223;-79
2024/02/03 09:29:52;;;;;;;2.73;1.63;;;;;;;-145.69;43.58;52250.31;5135119;27;20247;-79
2024/02/03 09:32:19;;;;;;;3.00;1.80;;;;;;;-145.69;43.88;52242.38;5135085;27;20235;-78
2024/02/03 09:34:49;;;;;;;2.47;1.53;;;;;;;-145.69;43.89;52262.19;5135226;27;20719;-78
2024/02/03 09:37:18;;;;;;;4.60;1.73;;;;;;;-145.69;44.07;52268.13;5135142;27;20192;-79
2024/02/03 09:39:47;;;;;;;2.10;1.43;;;;;;;-145.69;43.12;52234.47;5135180;27;20200;-78
2024/02/03 09:42:14;;;;;;;2.23;1.60;;;;;;;-145.69;43.07;52238.44;5134457;27;20197;-78
2024/02/03 09:44:41;;;;;;;6.47;1.70;;;;;;;-145.69;42.44;52226.53;5135231;27;20233;-78
2024/02/03 09:47:14;;;;;;;2.40;1.53;;;;;;;-145.69;42.28;52234.47;5134200;27;20280;-78
2024/02/03 09:49:43;;;;;;;3.13;1.53;;;;;;;-145.69;41.87;52230.50;5134991;27;20200;-78
2024/02/03 09:52:18;;;;;;;2.73;1.50;;;;;;;-145.69;41.75;52250.31;5124582;27;20611;-79
2024/02/03 09:54:46;;;;;;;2.27;1.47;;;;;;;-145.69;41.29;52206.75;5135004;27;20196;-79
2024/02/03 09:57:19;;;;;;;1.80;1.10;;;;;;;-145.69;41.68;52230.50;5135213;27;20205;-79
2024/02/03 09:59:50;;;;;;;1.43;1.20;;;;;;;-145.69;41.50;52218.63;5134768;27;20226;-79
2024/02/03 10:02:18;;;;;;;1.83;1.20;;;;;;;-145.69;42.09;52222.59;5133701;27;20208;-79
2024/02/03 10:04:46;;;;;;;1.90;1.13;;;;;;;-145.69;41.75;52206.75;5133549;27;20211;-80
2024/02/03 10:07:17;;;;;;;1.93;1.60;;;;;;;-145.69;42.09;52254.28;5133159;27;20207;-79
2024/02/03 10:09:44;;;;;;;5.90;1.30;;;;;;;-145.69;42.35;52234.47;5134460;27;20204;-80
2024/02/03 10:12:17;;;;;;;1.57;1.27;;;;;;;-145.69;42.75;52222.59;5134208;27;20201;-79
2024/02/03 10:14:44;;;;;;;1.97;1.70;;;;;;;-145.69;43.97;52218.63;5132862;27;20197;-80
2024/02/03 10:17:19;;;;;;;3.07;1.83;;;;;;;-145.69;44.57;52226.53;5133032;27;20207;-79
2024/02/03 10:19:47;;;;;;;2.50;1.83;;;;;;;-145.69;44.84;52226.53;5130395;27;20203;-79
2024/02/03 10:22:13;;;;;;;3.63;1.63;;;;;;;-145.69;46.78;52226.53;5113811;27;20197;-80
2024/02/03 10:24:40;;;;;;;3.17;1.57;;;;;;;-145.69;46.03;52232.50;5115895;27;20208;-79
2024/02/03 10:27:09;;;;;;;2.60;1.80;;;;;;;-145.69;45.95;52230.50;5132359;27;20220;-80
2024/02/03 10:29:35;;;;;;;2.73;1.70;;;;;;;-145.69;46.21;52222.59;5133512;27;20232;-80
2024/02/03 10:32:02;;;;;;;2.30;1.50;;;;;;;-145.69;47.41;52236.44;5134035;27;20196;-79
2024/02/03 10:34:31;;;;;;;1.70;1.20;;;;;;;-145.69;48.29;52254.28;5133980;27;20551;-78
2024/02/03 10:36:59;;;;;;;2.97;1.73;;;;;;;-145.69;48.63;52258.22;5133970;27;20204;-79
2024/02/03 10:39:25;;;;;;;3.10;2.07;;;;;;;-145.69;48.80;52228.53;5133961;27;20192;-80
2024/02/03 10:41:53;;;;;;;2.73;1.93;;;;;;;-145.69;48.82;52194.88;5133348;27;20208;-81
2024/02/03 10:44:24;;;;;;;2.77;1.87;;;;;;;-145.69;49.13;52202.78;5134157;27;20567;-80
2024/02/03 10:46:53;;;;;;;1.90;1.53;;;;;;;-145.69;49.49;52228.53;5133975;27;20215;-79
2024/02/03 10:49:29;;;;;;;2.67;1.90;;;;;;;-145.69;49.97;52214.66;5133824;27;20228;-78
2024/02/03 10:51:57;;;;;;;3.40;1.73;;;;;;;-145.69;49.32;52224.56;5133023;27;20228;-79
2024/02/03 10:54:27;;;;;;;2.97;1.80;;;;;;;-145.69;49.62;52220.59;5134229;27;20631;-79
2024/02/03 10:56:54;;;;;;;4.23;2.20;;;;;;;-145.69;49.53;52236.44;5133800;27;20201;-79
2024/02/03 10:59:25;;;;;;;3.50;2.07;;;;;;;-145.69;49.96;52206.75;5133748;27;20363;-79
2024/02/03 11:01:51;;;;;;;7.37;2.27;;;;;;;-145.69;50.64;52238.44;5133350;27;20659;-78
2024/02/03 11:04:18;;;;;;;2.47;2.00;;;;;;;-145.69;51.28;52236.44;5133868;27;20265;-79
2024/02/03 11:06:46;;;;;;;3.80;2.20;;;;;;;-145.69;51.98;52194.88;5133481;27;20655;-79
2024/02/03 11:09:14;;;;;;;4.37;2.53;;;;;;;-145.69;52.42;52206.75;5132717;27;20232;-78
2024/02/03 11:11:49;;;;;;;3.73;2.77;;;;;;;-145.69;54.02;52226.53;5133656;27;20597;-79
2024/02/03 11:14:18;;;;;;;4.63;3.10;;;;;;;-145.69;54.10;52246.34;5133603;27;20211;-78
2024/02/03 11:16:54;;;;;;;5.17;2.90;;;;;;;-145.69;54.59;52244.38;5133469;27;20201;-79
2024/02/03 11:19:25;;;;;;;5.73;3.27;;;;;;;-145.69;54.48;52198.81;5133132;27;20296;-78